Hlavní strana
METAR-TAF:

METAR-TAF

Letiště :

Fort Liard, Severozápadní teritoria, Kanada

zeměpisná šířka: 60-14N, zeměpisná délka: 123-29W, výška: 215 m

Aktuální stav počasí

Zpráva byla vytvořena před 4 hodinami a 49 minutami, v 22:00 UTC
Západojihozápadní vítr 10 kt s nárazy do 17 kt, proměnlivý mezi jihozápadním a západoseverozápadním
Teplota 14°C
Vlhkost vzduchu 36%
Tlak 1015 hPa
Viditelnost: 24.1 km
Skoro jasno ve výšce 9600 ft
Skoro jasno ve výšce 14000 ft
Skoro jasno ve výšce 24000 ft

METAR: CYJF 182200Z 25010G17KT 230V290 15SM FEW096 FEW140 FEW240 14/M01 A2998 RMK AC1AC1CI1 AC TR 16.3/4.8/0/0 SNW CVR/NIL LAST STFD OBS/NEXT 191400UTC SLP159 DENSITY ALT 800FT

Čas: 20:49 (02:49 UTC)


TAF: chybějící

Stav a předpovědi počasí z více než 4 000 letišť (zprávy METAR a TAF).

Červené a žluté tečky na mapě představují dostupné meteorologické stanice.

Když kurzor umístíte na tečku, zobrazí se název stanice.

Pak kliknutím zobrazíte stav a předpověď počasí.

Chcete-li změnit mapu, kliknutím na zelené tlačítko se znaménkem +mapu přiblížíte, kliknutím na zelené tlačítko se znaménkem – mapu oddálíte a kliknutím na zelené šipky přejdete na sousední mapy.


METAR-TAF: